Crown Topaz — 3FAS9 — position and weather

sailwx.info

Track history (hours):
 
Tides and Currents Weather Stations Pressure Air Temp Water Temp Dewpoint Dewpoint Depression Visibility Wind Speed Wind Dir Waves Ship Positions

Crown Topaz

Last reported at 2014-Jul-25 02:03 UTC. Time now 2014-Jul-26 19:15 UTC.
Position N 49°05' W 007°26'.

Length 152 m; draft 6.7 m.

Type: Cargo ship. MMSI: 357144000.

Date/timePositionNaut miles runAvg speedWind from/ knotsBaromVisibWave heightAir tempDewpointWater temp
2014-Jul-25 02:03N 49°05' W 007°26'918.3
2014-Jul-25 01:33N 49°08' W 007°13'17018.9
2014-Jul-24 16:33N 49°57' W 003°02'1818.2
2014-Jul-24 15:34N 50°01' W 002°35'1818.4
2014-Jul-24 14:33N 50°01' W 002°06'2120.6
2014-Jul-24 13:33N 49°53' W 001°36'2221.7
2014-Jul-24 12:33N 49°46' W 001°04'2121.0
2014-Jul-24 11:34N 49°38' W 000°35'1919.1
2014-Jul-24 10:33N 49°30' W 000°08'1313.0
2014-Jul-24 09:33N 49°26' E 000°11'12 0.8
2014-Jul-23 18:33N 49°29' E 000°29'9 9.1
2014-Jul-23 17:33N 49°26' E 000°15'1111.4
2014-Jul-23 16:34N 49°28' W 000°02'5 4.9
2014-Jul-23 15:32N 49°28' W 000°09'0 0.0
2014-Jul-23 14:32N 49°28' W 000°09'0 0.0
2014-Jul-23 13:32N 49°28' W 000°09'0 0.0
2014-Jul-23 12:32N 49°28' W 000°09'0 0.0
2014-Jul-23 11:32N 49°28' W 000°09'0 0.0
2014-Jul-23 10:32N 49°29' W 000°09'0 0.0
2014-Jul-23 09:32N 49°29' W 000°09'7 6.7
2014-Jul-23 08:33N 49°35' W 000°11'5417.2
2014-Jul-23 05:25N 50°28' E 000°03'1618.7
2014-Jul-23 04:33N 50°33' E 000°27'2019.8
2014-Jul-23 03:33N 50°43' E 000°54'2120.7
2014-Jul-23 02:34N 50°56' E 001°19'2120.8
2014-Jul-23 01:34N 51°11' E 001°42'1818.3
2014-Jul-23 00:34N 51°25' E 002°01'1817.5
2014-Jul-22 23:33N 51°23' E 002°29'1413.7
2014-Jul-22 22:33N 51°22' E 002°51'1716.7
2014-Jul-22 21:33N 51°25' E 003°18'1212.4
2014-Jul-22 20:33N 51°26' E 003°37'1211.8
2014-Jul-22 19:34N 51°22' E 003°55'9 9.4
2014-Jul-22 18:33N 51°23' E 004°10'5 5.1
2014-Jul-22 17:34N 51°21' E 004°17'2 1.6
2014-Jul-22 16:33N 51°19' E 004°19'5 4.4
2014-Jul-22 15:31N 51°16' E 004°23'0 0.0
2014-Jul-22 14:34N 51°16' E 004°23'0 0.0
2014-Jul-22 13:31N 51°16' E 004°23'0 0.0
2014-Jul-22 12:34N 51°16' E 004°23'0 0.0
2014-Jul-22 11:34N 51°16' E 004°23'0 0.0
2014-Jul-22 10:34N 51°16' E 004°23'0 0.0
2014-Jul-22 09:34N 51°16' E 004°23'0 0.0
2014-Jul-22 08:34N 51°16' E 004°23'0 0.0
2014-Jul-22 07:34N 51°16' E 004°23'0 0.0
2014-Jul-22 06:34N 51°16' E 004°23'0 0.0
2014-Jul-22 05:31N 51°16' E 004°23'0 0.0
2014-Jul-22 04:34N 51°16' E 004°23'0 0.0
2014-Jul-22 03:34N 51°16' E 004°23'0 0.0
2014-Jul-22 02:31N 51°16' E 004°23'0 0.0
2014-Jul-22 01:31N 51°16' E 004°23'0 0.0
2014-Jul-22 00:34N 51°16' E 004°23'0 0.0
2014-Jul-21 23:31N 51°16' E 004°23'0 0.0
2014-Jul-21 22:31N 51°16' E 004°23'0 0.0
2014-Jul-21 21:34N 51°16' E 004°23'0 0.0
2014-Jul-21 20:31N 51°16' E 004°23'0 0.0
2014-Jul-21 20:16N 51°16' E 004°23'0 0.0
2014-Jul-21 19:31N 51°16' E 004°23'0 0.0
2014-Jul-21 18:31N 51°16' E 004°23'0 0.0
2014-Jul-21 17:31N 51°16' E 004°23'0 0.0
2014-Jul-21 16:31N 51°16' E 004°23'0 0.0
2014-Jul-21 15:34N 51°16' E 004°23'0 0.0
2014-Jul-21 14:31N 51°16' E 004°23'3 2.6
2014-Jul-21 13:33N 51°17' E 004°20'4 3.7
2014-Jul-21 12:34N 51°21' E 004°17'0 0.2
2014-Jul-21 11:34N 51°21' E 004°17'4 4.3
2014-Jul-21 10:33N 51°24' E 004°12'9 9.0
2014-Jul-21 09:34N 51°24' E 003°58'9 9.4
2014-Jul-21 08:34N 51°24' E 003°43'1010.4
2014-Jul-21 07:33N 51°25' E 003°26'1515.4
2014-Jul-21 06:33N 51°24' E 003°01'1414.4
2014-Jul-21 05:33N 51°22' E 002°38'7 7.2
2014-Jul-21 04:33N 51°21' E 002°27'1616.2
2014-Jul-21 03:34N 51°13' E 002°05'1717.0
2014-Jul-21 02:34N 51°04' E 001°42'2116.2
2014-Jul-21 01:17N 50°46' E 001°25'2917.0
2014-Jul-20 23:33N 50°27' E 000°49'1817.8
2014-Jul-20 22:32N 50°23' E 000°22'2517.1
2014-Jul-20 21:06N 50°26' W 000°17'1017.8
2014-Jul-20 20:33N 50°30' W 000°30'1716.5
2014-Jul-20 19:34N 50°38' W 000°53'1111.1
2014-Jul-20 18:33N 50°46' W 001°05'3 2.8
2014-Jul-20 17:32N 50°49' W 001°06'0 0.0
2014-Jul-20 16:32N 50°49' W 001°06'0 0.0
2014-Jul-20 15:32N 50°49' W 001°06'0 0.0
2014-Jul-20 14:32N 50°49' W 001°06'0 0.0
2014-Jul-20 13:32N 50°49' W 001°06'0 0.0
2014-Jul-20 12:32N 50°49' W 001°06'0 0.0
2014-Jul-20 11:32N 50°49' W 001°06'0 0.0
2014-Jul-20 10:32N 50°49' W 001°06'0 0.0
2014-Jul-20 09:32N 50°49' W 001°06'0 0.0
2014-Jul-20 08:32N 50°49' W 001°06'0 0.0
2014-Jul-20 07:32N 50°49' W 001°06'0 0.0
2014-Jul-20 06:32N 50°49' W 001°06'0 0.0
2014-Jul-20 05:32N 50°49' W 001°06'0 0.0
2014-Jul-20 04:32N 50°49' W 001°06'0 0.0
2014-Jul-20 03:32N 50°49' W 001°06'0 0.0
2014-Jul-20 02:32N 50°49' W 001°06'0 0.0
2014-Jul-20 01:31N 50°49' W 001°06'0 0.0
2014-Jul-20 00:32N 50°49' W 001°06'0 0.0
2014-Jul-19 23:32N 50°49' W 001°06'0 0.0
2014-Jul-19 22:32N 50°49' W 001°06'0 0.0
2014-Jul-19 21:32N 50°49' W 001°06'0 0.0
2014-Jul-19 20:31N 50°49' W 001°06'0 0.0
2014-Jul-19 19:32N 50°49' W 001°06'0 0.0
2014-Jul-19 18:32N 50°49' W 001°06'0 0.0
2014-Jul-19 17:32N 50°49' W 001°06'0 0.0
2014-Jul-19 16:32N 50°49' W 001°06'0 0.0
2014-Jul-19 15:32N 50°49' W 001°06'0 0.0
2014-Jul-19 14:31N 50°49' W 001°06'4 4.3
2014-Jul-19 13:33N 50°44' W 001°04'7 7.4
2014-Jul-19 12:33N 50°38' W 000°59'1212.4
2014-Jul-19 11:33N 50°29' W 001°12'  
Track history (hours):
 
Tides and Currents Weather Stations Pressure Air Temp Water Temp Dewpoint Dewpoint Depression Visibility Wind Speed Wind Dir Waves Ship Positions

Crown Topaz

Last reported at 2014-Jul-25 02:03 UTC. Time now 2014-Jul-26 19:15 UTC.
Position N 49°05' W 007°26'.

Length 152 m; draft 6.7 m.

Type: Cargo ship. MMSI: 357144000.

Date/timePositionNaut miles runAvg speedWind from/ knotsBaromVisibWave heightAir tempDewpointWater temp
2014-Jul-25 02:03N 49°05' W 007°26'918.3
2014-Jul-25 01:33N 49°08' W 007°13'17018.9
2014-Jul-24 16:33N 49°57' W 003°02'1818.2
2014-Jul-24 15:34N 50°01' W 002°35'1818.4
2014-Jul-24 14:33N 50°01' W 002°06'2120.6
2014-Jul-24 13:33N 49°53' W 001°36'2221.7
2014-Jul-24 12:33N 49°46' W 001°04'2121.0
2014-Jul-24 11:34N 49°38' W 000°35'1919.1
2014-Jul-24 10:33N 49°30' W 000°08'1313.0
2014-Jul-24 09:33N 49°26' E 000°11'12 0.8
2014-Jul-23 18:33N 49°29' E 000°29'9 9.1
2014-Jul-23 17:33N 49°26' E 000°15'1111.4
2014-Jul-23 16:34N 49°28' W 000°02'5 4.9
2014-Jul-23 15:32N 49°28' W 000°09'0 0.0
2014-Jul-23 14:32N 49°28' W 000°09'0 0.0
2014-Jul-23 13:32N 49°28' W 000°09'0 0.0
2014-Jul-23 12:32N 49°28' W 000°09'0 0.0
2014-Jul-23 11:32N 49°28' W 000°09'0 0.0
2014-Jul-23 10:32N 49°29' W 000°09'0 0.0
2014-Jul-23 09:32N 49°29' W 000°09'7 6.7
2014-Jul-23 08:33N 49°35' W 000°11'5417.2
2014-Jul-23 05:25N 50°28' E 000°03'1618.7
2014-Jul-23 04:33N 50°33' E 000°27'2019.8
2014-Jul-23 03:33N 50°43' E 000°54'2120.7
2014-Jul-23 02:34N 50°56' E 001°19'2120.8
2014-Jul-23 01:34N 51°11' E 001°42'1818.3
2014-Jul-23 00:34N 51°25' E 002°01'1817.5
2014-Jul-22 23:33N 51°23' E 002°29'1413.7
2014-Jul-22 22:33N 51°22' E 002°51'1716.7
2014-Jul-22 21:33N 51°25' E 003°18'1212.4
2014-Jul-22 20:33N 51°26' E 003°37'1211.8
2014-Jul-22 19:34N 51°22' E 003°55'9 9.4
2014-Jul-22 18:33N 51°23' E 004°10'5 5.1
2014-Jul-22 17:34N 51°21' E 004°17'2 1.6
2014-Jul-22 16:33N 51°19' E 004°19'5 4.4
2014-Jul-22 15:31N 51°16' E 004°23'0 0.0
2014-Jul-22 14:34N 51°16' E 004°23'0 0.0
2014-Jul-22 13:31N 51°16' E 004°23'0 0.0
2014-Jul-22 12:34N 51°16' E 004°23'0 0.0
2014-Jul-22 11:34N 51°16' E 004°23'0 0.0
2014-Jul-22 10:34N 51°16' E 004°23'0 0.0
2014-Jul-22 09:34N 51°16' E 004°23'0 0.0
2014-Jul-22 08:34N 51°16' E 004°23'0 0.0
2014-Jul-22 07:34N 51°16' E 004°23'0 0.0
2014-Jul-22 06:34N 51°16' E 004°23'0 0.0
2014-Jul-22 05:31N 51°16' E 004°23'0 0.0
2014-Jul-22 04:34N 51°16' E 004°23'0 0.0
2014-Jul-22 03:34N 51°16' E 004°23'0 0.0
2014-Jul-22 02:31N 51°16' E 004°23'0 0.0
2014-Jul-22 01:31N 51°16' E 004°23'0 0.0
2014-Jul-22 00:34N 51°16' E 004°23'0 0.0
2014-Jul-21 23:31N 51°16' E 004°23'0 0.0
2014-Jul-21 22:31N 51°16' E 004°23'0 0.0
2014-Jul-21 21:34N 51°16' E 004°23'0 0.0
2014-Jul-21 20:31N 51°16' E 004°23'0 0.0
2014-Jul-21 20:16N 51°16' E 004°23'0 0.0
2014-Jul-21 19:31N 51°16' E 004°23'0 0.0
2014-Jul-21 18:31N 51°16' E 004°23'0 0.0
2014-Jul-21 17:31N 51°16' E 004°23'0 0.0
2014-Jul-21 16:31N 51°16' E 004°23'0 0.0
2014-Jul-21 15:34N 51°16' E 004°23'0 0.0
2014-Jul-21 14:31N 51°16' E 004°23'3 2.6
2014-Jul-21 13:33N 51°17' E 004°20'4 3.7
2014-Jul-21 12:34N 51°21' E 004°17'0 0.2
2014-Jul-21 11:34N 51°21' E 004°17'4 4.3
2014-Jul-21 10:33N 51°24' E 004°12'9 9.0
2014-Jul-21 09:34N 51°24' E 003°58'9 9.4
2014-Jul-21 08:34N 51°24' E 003°43'1010.4
2014-Jul-21 07:33N 51°25' E 003°26'1515.4
2014-Jul-21 06:33N 51°24' E 003°01'1414.4
2014-Jul-21 05:33N 51°22' E 002°38'7 7.2
2014-Jul-21 04:33N 51°21' E 002°27'1616.2
2014-Jul-21 03:34N 51°13' E 002°05'1717.0
2014-Jul-21 02:34N 51°04' E 001°42'2116.2
2014-Jul-21 01:17N 50°46' E 001°25'2917.0
2014-Jul-20 23:33N 50°27' E 000°49'1817.8
2014-Jul-20 22:32N 50°23' E 000°22'2517.1
2014-Jul-20 21:06N 50°26' W 000°17'1017.8
2014-Jul-20 20:33N 50°30' W 000°30'1716.5
2014-Jul-20 19:34N 50°38' W 000°53'1111.1
2014-Jul-20 18:33N 50°46' W 001°05'3 2.8
2014-Jul-20 17:32N 50°49' W 001°06'0 0.0
2014-Jul-20 16:32N 50°49' W 001°06'0 0.0
2014-Jul-20 15:32N 50°49' W 001°06'0 0.0
2014-Jul-20 14:32N 50°49' W 001°06'0 0.0
2014-Jul-20 13:32N 50°49' W 001°06'0 0.0
2014-Jul-20 12:32N 50°49' W 001°06'0 0.0
2014-Jul-20 11:32N 50°49' W 001°06'0 0.0
2014-Jul-20 10:32N 50°49' W 001°06'0 0.0
2014-Jul-20 09:32N 50°49' W 001°06'0 0.0
2014-Jul-20 08:32N 50°49' W 001°06'0 0.0
2014-Jul-20 07:32N 50°49' W 001°06'0 0.0
2014-Jul-20 06:32N 50°49' W 001°06'0 0.0
2014-Jul-20 05:32N 50°49' W 001°06'0 0.0
2014-Jul-20 04:32N 50°49' W 001°06'0 0.0
2014-Jul-20 03:32N 50°49' W 001°06'0 0.0
2014-Jul-20 02:32N 50°49' W 001°06'0 0.0
2014-Jul-20 01:31N 50°49' W 001°06'0 0.0
2014-Jul-20 00:32N 50°49' W 001°06'0 0.0
2014-Jul-19 23:32N 50°49' W 001°06'0 0.0
2014-Jul-19 22:32N 50°49' W 001°06'0 0.0
2014-Jul-19 21:32N 50°49' W 001°06'0 0.0
2014-Jul-19 20:31N 50°49' W 001°06'0 0.0
2014-Jul-19 19:32N 50°49' W 001°06'0 0.0
2014-Jul-19 18:32N 50°49' W 001°06'0 0.0
2014-Jul-19 17:32N 50°49' W 001°06'0 0.0
2014-Jul-19 16:32N 50°49' W 001°06'0 0.0
2014-Jul-19 15:32N 50°49' W 001°06'0 0.0
2014-Jul-19 14:31N 50°49' W 001°06'4 4.3
2014-Jul-19 13:33N 50°44' W 001°04'7 7.4
2014-Jul-19 12:33N 50°38' W 000°59'1212.4
2014-Jul-19 11:33N 50°29' W 001°12'  

Dump ship's entire track history